CYRV Airport Information

Runway Information
Runway 12 Length 4800 ft width 75 ft
Elevation 1457 ft Threshold 0 ft Heading 138
Runway 30 Length 4800 ft Width 75 ft
Elevation 1459 ft Threshold 300 ft Heading 318
Airport Frequencies
Type RCO Name PACIFIC RD Frequency 126.7 MHZ
Type UNIC Name ATF/UNICOM Frequency 122.8 MHZ
Airport Navaids
Airport Weather Information & NOTAM
ADDS - METARS form results

(1853 UTC 17 January 2021)
Data provider http://aviationweather.gov/metar/data/
 
METAR text: CYRV 171840Z AUTO 16005KT 3SM -SN BKN033 OVC050 00/00 A3024 RMK SLP265
Conditions at: CYRV (REVELSTOKE AIRPO, BC, CA) observed 1840 UTC 17 January 2021
Temperature: 0.0°C (32°F)
Dewpoint: 0.0°C (32°F) [RH = 100%]
Pressure (altimeter): 30.24 inches Hg (1024.1 mb)
[Sea-level pressure: 1026.5 mb]
Winds: from the SSE (160 degrees) at 6 MPH (5 knots; 2.6 m/s)
Visibility: 3 miles ( 5 km)
Ceiling: 3300 feet AGL
Clouds: broken clouds at 3300 feet AGL
overcast cloud deck at 5000 feet AGL
Weather: -SN  (light snow)

METAR text: CYRV 171832Z AUTO 18003KT 2SM -SN BKN028 OVC038 00/00 A3024 RMK VIS VRB 1 1/4-3 SLP266
Conditions at: CYRV (REVELSTOKE AIRPO, BC, CA) observed 1832 UTC 17 January 2021
Temperature: 0.0°C (32°F)
Dewpoint: 0.0°C (32°F) [RH = 100%]
Pressure (altimeter): 30.24 inches Hg (1024.1 mb)
[Sea-level pressure: 1026.6 mb]
Winds: from the S (180 degrees) at 3 MPH (3 knots; 1.5 m/s)
Visibility: 2.00 miles (3.22 km)
Ceiling: 2800 feet AGL
Clouds: broken clouds at 2800 feet AGL
overcast cloud deck at 3800 feet AGL
Weather: -SN  (light snow)

METAR text: CYRV 171829Z AUTO 17003KT 1 1/2SM -SN BKN026 OVC036 00/00 A3024 RMK VIS VRB 3/4-3 SLP265
Conditions at: CYRV (REVELSTOKE AIRPO, BC, CA) observed 1829 UTC 17 January 2021
Temperature: 0.0°C (32°F)
Dewpoint: 0.0°C (32°F) [RH = 100%]
Pressure (altimeter): 30.24 inches Hg (1024.1 mb)
[Sea-level pressure: 1026.5 mb]
Winds: from the S (170 degrees) at 3 MPH (3 knots; 1.5 m/s)
Visibility: 1.50 miles (2.41 km)
Ceiling: 2600 feet AGL
Clouds: broken clouds at 2600 feet AGL
overcast cloud deck at 3600 feet AGL
Weather: -SN  (light snow)

METAR text: CYRV 171800Z AUTO 14002KT 5/8SM -SN VV014 00/00 A3023 RMK SLP263
Conditions at: CYRV (REVELSTOKE AIRPO, BC, CA) observed 1800 UTC 17 January 2021
Temperature: 0.0°C (32°F)
Dewpoint: 0.0°C (32°F) [RH = 100%]
Pressure (altimeter): 30.23 inches Hg (1023.8 mb)
[Sea-level pressure: 1026.3 mb]
Winds: from the SE (140 degrees) at 2 MPH (2 knots; 1.0 m/s)
Visibility: 0.63 miles (1.01 km)
Ceiling: indefinite ceiling with vertical visibility of 1400 feet AGL
Clouds: obscured sky
Weather: -SN  (light snow)